Temp: 14.3°C   Baro: 995.2mb
  Wind: 6.0mph   Dir: SW (219°)
  Rain: 0.4mm (0.6mm/hr)
  Solar: 62W/m2  Hum: 89%
 
Bath Spa Weather Station Historical Data
Daily Summary for January 7, 2020 Units:  English    Metric   Both
Daily Weekly Monthly Yearly Custom
  High: Low: Average:
Temperature: 59.4 °F 47.3 °F 53.3 °F
Dew Point: 55.4 °F 45.1 °F 49.1 °F
Humidity: 92% 67% 84%
Wind Speed: 11.1mph 0.4mph 4.3mph
Wind Gust: 18mph - -
Wind- - West
Pressure: 29.98 in 29.73 in -
Precipitation: 0.04 in    
Historical Graphs
 
 
Tabular Data for January 7, 2020
Time Temperature Dew Point Pressure Wind Wind Speed Wind Gust Humidity Rainfall Rate (Hourly) solar
00:04 50.5 °F 48.6 °F 29.73 in WNW 4.4 mph 8 mph 90% 0.00 in 0 W/m2
00:09 50.5 °F 48.6 °F 29.73 in WNW 4.4 mph 8 mph 90% 0.00 in 0 W/m2
00:13 50.5 °F 48.6 °F 29.73 in WNW 5.4 mph 8 mph 90% 0.00 in 0 W/m2
00:19 50.5 °F 48.6 °F 29.73 in NW 4.1 mph 8 mph 90% 0.00 in 0 W/m2
00:24 50.4 °F 48.4 °F 29.74 in NW 3.7 mph 10 mph 90% 0.00 in 0 W/m2
00:29 50.4 °F 48.4 °F 29.74 in NW 4.3 mph 8 mph 90% 0.00 in 0 W/m2
00:34 50.4 °F 48.4 °F 29.74 in WNW 4.4 mph 8 mph 90% 0.00 in 0 W/m2
00:39 50.2 °F 48.2 °F 29.75 in NW 4.6 mph 8 mph 90% 0.00 in 0 W/m2
00:44 50.2 °F 48.2 °F 29.74 in WNW 2.9 mph 7 mph 90% 0.00 in 0 W/m2
00:49 50.2 °F 48.2 °F 29.75 in NW 3.7 mph 6 mph 90% 0.00 in 0 W/m2
00:54 50.2 °F 48.4 °F 29.75 in NW 3.7 mph 6 mph 90.6% 0.00 in 0 W/m2
00:59 50.2 °F 48.6 °F 29.75 in NNW 3.7 mph 6 mph 91% 0.00 in 0 W/m2
01:04 50.2 °F 48.6 °F 29.76 in NNW 3.8 mph 10 mph 91% 0.00 in 0 W/m2
01:09 50.2 °F 48.6 °F 29.76 in NW 2.9 mph 6 mph 91% 0.00 in 0 W/m2
01:14 50.2 °F 48.6 °F 29.76 in NNW 4.3 mph 9 mph 91% 0.00 in 0 W/m2
01:19 49.9 °F 48 °F 29.76 in NW 4 mph 7 mph 90.3% 0.00 in 0 W/m2
01:24 49.8 °F 47.8 °F 29.76 in NW 4.8 mph 8 mph 90% 0.00 in 0 W/m2
01:29 49.8 °F 47.8 °F 29.76 in WNW 3.4 mph 8 mph 90% 0.00 in 0 W/m2
01:34 49.6 °F 47.7 °F 29.77 in NW 3.6 mph 6 mph 90% 0.00 in 0 W/m2
01:39 49.6 °F 47.7 °F 29.77 in WNW 4 mph 7 mph 90% 0.00 in 0 W/m2
01:44 49.5 °F 47.5 °F 29.77 in WNW 4.4 mph 8 mph 90% 0.00 in 0 W/m2
01:49 49.5 °F 47.5 °F 29.77 in WNW 4.9 mph 8 mph 90% 0.00 in 0 W/m2
01:54 49.5 °F 47.5 °F 29.77 in WNW 2.9 mph 8 mph 90% 0.00 in 0 W/m2
01:59 49.4 °F 47.4 °F 29.78 in WNW 2.5 mph 5 mph 90% 0.00 in 0 W/m2
02:04 49.3 °F 47.3 °F 29.78 in West 2.6 mph 4 mph 90% 0.00 in 0 W/m2
02:09 49.1 °F 47.1 °F 29.78 in West 2.5 mph 5 mph 90% 0.00 in 0 W/m2
02:14 49 °F 47 °F 29.78 in West 2.2 mph 4 mph 90% 0.00 in 0 W/m2
02:19 48.9 °F 46.9 °F 29.79 in West 1 mph 4 mph 90% 0.00 in 0 W/m2
02:24 48.9 °F 46.9 °F 29.79 in West 1.3 mph 4 mph 90% 0.00 in 0 W/m2
02:29 48.7 °F 46.8 °F 29.79 in West 2.7 mph 5 mph 90% 0.00 in 0 W/m2
02:34 48.7 °F 46.8 °F 29.79 in WNW 3.5 mph 9 mph 89.8% 0.00 in 0 W/m2
02:39 48.8 °F 46.8 °F 29.79 in WNW 2.9 mph 6 mph 89.2% 0.00 in 0 W/m2
02:44 48.9 °F 46.8 °F 29.79 in WNW 4.3 mph 8 mph 89% 0.00 in 0 W/m2
02:49 48.8 °F 46.7 °F 29.79 in WNW 4.9 mph 9 mph 89% 0.00 in 0 W/m2
02:54 48.8 °F 46.7 °F 29.79 in West 3.9 mph 8 mph 89% 0.00 in 0 W/m2
02:59 48.7 °F 46.6 °F 29.80 in WNW 4.3 mph 6 mph 89% 0.00 in 0 W/m2
03:04 48.7 °F 46.6 °F 29.80 in WNW 4.3 mph 11 mph 89% 0.00 in 0 W/m2
03:09 48.7 °F 46.3 °F 29.80 in West 4.9 mph 11 mph 88.2% 0.00 in 0 W/m2
03:13 48.7 °F 46.2 °F 29.80 in West 4.5 mph 7 mph 88% 0.00 in 0 W/m2
03:19 48.7 °F 46.2 °F 29.80 in West 4.4 mph 8 mph 88% 0.00 in 0 W/m2
03:24 48.7 °F 46.2 °F 29.80 in West 5.6 mph 8 mph 88% 0.00 in 0 W/m2
03:29 48.7 °F 46.2 °F 29.80 in WNW 7.4 mph 9 mph 88% 0.00 in 0 W/m2
03:34 48.7 °F 46.2 °F 29.80 in WNW 5 mph 9 mph 88% 0.00 in 0 W/m2
03:39 48.7 °F 46.1 °F 29.80 in WNW 7.6 mph 9 mph 88% 0.00 in 0 W/m2
03:44 48.7 °F 46.1 °F 29.80 in NW 7.6 mph 11 mph 88% 0.00 in 0 W/m2
03:49 48.6 °F 46 °F 29.81 in NW 6.4 mph 11 mph 88% 0.00 in 0 W/m2
03:54 48.6 °F 46 °F 29.81 in WNW 5.9 mph 10 mph 88% 0.00 in 0 W/m2
03:59 48.7 °F 46.2 °F 29.82 in WNW 6.8 mph 12 mph 88% 0.00 in 0 W/m2
04:04 48.6 °F 46 °F 29.82 in WNW 6.2 mph 10 mph 88% 0.00 in 0 W/m2
04:09 48.6 °F 46 °F 29.82 in WNW 5.2 mph 10 mph 88% 0.00 in 0 W/m2
04:14 48.4 °F 45.9 °F 29.83 in WNW 5.2 mph 10 mph 88% 0.00 in 0 W/m2
04:19 48.4 °F 45.9 °F 29.83 in WNW 4.9 mph 9 mph 88% 0.00 in 0 W/m2
04:24 48.4 °F 45.9 °F 29.83 in WNW 4.6 mph 8 mph 88% 0.00 in 0 W/m2
04:29 48.4 °F 45.9 °F 29.83 in WNW 7 mph 12 mph 88% 0.00 in 0 W/m2
04:34 48.4 °F 45.9 °F 29.83 in WNW 5.5 mph 8 mph 88% 0.00 in 0 W/m2
04:39 48.4 °F 45.9 °F 29.83 in WNW 5.4 mph 9 mph 88% 0.00 in 0 W/m2
04:44 48.5 °F 45.9 °F 29.83 in WNW 4.8 mph 10 mph 88% 0.00 in 0 W/m2
04:49 48.6 °F 46 °F 29.84 in WNW 4.9 mph 9 mph 88% 0.00 in 0 W/m2
04:54 48.6 °F 46 °F 29.84 in WNW 4.5 mph 8 mph 88% 0.00 in 0 W/m2
04:59 48.5 °F 45.9 °F 29.84 in WNW 3.8 mph 9 mph 88% 0.00 in 0 W/m2
05:04 48.4 °F 45.9 °F 29.84 in WNW 3.3 mph 7 mph 88% 0.00 in 0 W/m2
05:09 48.5 °F 46 °F 29.85 in WNW 5.5 mph 11 mph 88.2% 0.00 in 0 W/m2
05:14 48.6 °F 46 °F 29.85 in West 3.6 mph 6 mph 88% 0.00 in 0 W/m2
05:19 48.4 °F 45.9 °F 29.85 in WNW 3 mph 8 mph 88% 0.00 in 0 W/m2
05:24 48.4 °F 45.9 °F 29.85 in WNW 3.3 mph 6 mph 88% 0.00 in 0 W/m2
05:29 48.2 °F 45.7 °F 29.84 in WNW 2.8 mph 5 mph 88% 0.00 in 0 W/m2
05:34 48 °F 45.5 °F 29.85 in West 3.7 mph 6 mph 88% 0.00 in 0 W/m2
05:39 47.9 °F 45.5 °F 29.85 in West 4.4 mph 8 mph 88.4% 0.00 in 0 W/m2
05:44 48 °F 45.9 °F 29.86 in WNW 5.1 mph 10 mph 89% 0.00 in 0 W/m2
05:49 48.1 °F 45.9 °F 29.86 in WNW 4.5 mph 9 mph 89% 0.00 in 0 W/m2
05:54 48.1 °F 45.9 °F 29.86 in WNW 3.8 mph 8 mph 89% 0.00 in 0 W/m2
05:59 48 °F 45.9 °F 29.86 in WNW 5.3 mph 7 mph 89% 0.00 in 0 W/m2
06:04 48 °F 45.9 °F 29.87 in WNW 5.2 mph 10 mph 89% 0.00 in 0 W/m2
06:09 48.1 °F 46 °F 29.87 in WNW 4.8 mph 8 mph 89% 0.00 in 0 W/m2
06:14 48 °F 45.9 °F 29.87 in NW 4 mph 9 mph 89% 0.00 in 0 W/m2
06:19 48 °F 45.9 °F 29.88 in WNW 3.9 mph 7 mph 89% 0.00 in 0 W/m2
06:24 48 °F 45.9 °F 29.88 in WNW 3.3 mph 7 mph 89% 0.00 in 0 W/m2
06:29 48 °F 45.9 °F 29.88 in WNW 4.8 mph 8 mph 89% 0.00 in 0 W/m2
06:34 48 °F 45.9 °F 29.88 in WNW 4.8 mph 9 mph 89% 0.00 in 0 W/m2
06:39 48 °F 45.9 °F 29.88 in WNW 4.7 mph 9 mph 89% 0.00 in 0 W/m2
06:44 48 °F 45.9 °F 29.88 in WNW 4.7 mph 7 mph 89% 0.00 in 0 W/m2
06:49 47.8 °F 45.7 °F 29.89 in WNW 5.2 mph 8 mph 89% 0.00 in 0 W/m2
06:54 47.8 °F 45.7 °F 29.89 in WNW 5.7 mph 11 mph 89% 0.00 in 0 W/m2
06:59 47.9 °F 45.8 °F 29.89 in WNW 5.8 mph 10 mph 89% 0.00 in 0 W/m2
07:04 47.8 °F 45.7 °F 29.89 in WNW 4.7 mph 8 mph 89% 0.00 in 0 W/m2
07:09 47.8 °F 45.7 °F 29.89 in WNW 4.4 mph 8 mph 89% 0.00 in 0 W/m2
07:14 47.7 °F 45.6 °F 29.90 in WNW 3.6 mph 7 mph 89% 0.00 in 0 W/m2
07:19 47.7 °F 45.5 °F 29.90 in WNW 3.8 mph 6 mph 89% 0.00 in 0 W/m2
07:24 47.5 °F 45.3 °F 29.90 in WNW 3.3 mph 6 mph 89% 0.00 in 5 W/m2
07:29 47.5 °F 45.3 °F 29.91 in WNW 2.7 mph 6 mph 89% 0.00 in 11 W/m2
07:34 47.4 °F 45.2 °F 29.91 in WNW 3.7 mph 6 mph 89% 0.00 in 12 W/m2
07:39 47.3 °F 45.1 °F 29.91 in WNW 3.4 mph 7 mph 89.2% 0.00 in 14 W/m2
07:44 47.3 °F 45.3 °F 29.91 in West 3.5 mph 7 mph 90% 0.00 in 18 W/m2
07:49 47.5 °F 45.5 °F 29.91 in West 2.9 mph 6 mph 90% 0.00 in 21 W/m2
07:54 47.5 °F 45.5 °F 29.91 in West 2.4 mph 5 mph 90% 0.00 in 32 W/m2
07:59 47.5 °F 45.5 °F 29.91 in West 3.1 mph 4 mph 90% 0.00 in 37 W/m2
08:04 47.5 °F 45.5 °F 29.92 in West 2.1 mph 4 mph 90% 0.00 in 35 W/m2
08:09 47.5 °F 45.5 °F 29.92 in West 1.5 mph 3 mph 90% 0.00 in 44 W/m2
08:14 47.5 °F 45.5 °F 29.92 in West 0.5 mph 3 mph 90% 0.00 in 47 W/m2
08:19 47.7 °F 45.7 °F 29.92 in West 2 mph 3 mph 90% 0.00 in 54 W/m2
08:24 47.7 °F 45.7 °F 29.92 in West 2.1 mph 4 mph 90% 0.00 in 58 W/m2
08:29 47.8 °F 45.8 °F 29.93 in West 2.3 mph 4 mph 90% 0.00 in 56 W/m2
08:34 47.9 °F 45.9 °F 29.93 in West 1.6 mph 4 mph 90% 0.00 in 62 W/m2
08:39 48 °F 46 °F 29.93 in West 2.1 mph 5 mph 90% 0.00 in 67 W/m2
08:44 48.2 °F 46.2 °F 29.93 in WNW 1.7 mph 5 mph 90% 0.00 in 67 W/m2
08:49 48.5 °F 46.5 °F 29.93 in WNW 1.8 mph 4 mph 90% 0.00 in 62 W/m2
08:54 48.7 °F 46.7 °F 29.93 in WNW 2.2 mph 5 mph 90% 0.00 in 81 W/m2
08:59 49.3 °F 47.3 °F 29.94 in West 2.3 mph 5 mph 90% 0.00 in 98 W/m2
09:04 49.6 °F 47.7 °F 29.94 in West 2 mph 5 mph 90% 0.00 in 107 W/m2
09:09 50.2 °F 48.1 °F 29.94 in West 3.3 mph 5 mph 89.4% 0.00 in 141 W/m2
09:14 50.7 °F 48.4 °F 29.94 in WNW 4.1 mph 7 mph 88.6% 0.00 in 176 W/m2
09:19 51.2 °F 48.5 °F 29.94 in WNW 5.1 mph 8 mph 87.4% 0.00 in 214 W/m2
09:24 51.6 °F 48.4 °F 29.95 in WNW 6.2 mph 9 mph 86.2% 0.00 in 183 W/m2
09:29 51.7 °F 48.5 °F 29.95 in WNW 6.9 mph 9 mph 85.8% 0.00 in 142 W/m2
09:34 51.8 °F 48.4 °F 29.95 in WNW 6.9 mph 15 mph 85% 0.00 in 172 W/m2
09:39 51.8 °F 48 °F 29.95 in WNW 5.2 mph 15 mph 84% 0.00 in 142 W/m2
09:44 52 °F 48.2 °F 29.95 in WNW 4.4 mph 8 mph 84% 0.00 in 155 W/m2
09:49 52.1 °F 48 °F 29.95 in WNW 6.4 mph 12 mph 83.4% 0.00 in 230 W/m2
09:54 52.2 °F 48 °F 29.95 in NW 4.8 mph 10 mph 83% 0.00 in 218 W/m2
09:59 52.3 °F 48.2 °F 29.95 in WNW 5 mph 9 mph 83% 0.00 in 220 W/m2
10:04 52.6 °F 48.5 °F 29.95 in WNW 6 mph 9 mph 83% 0.00 in 309 W/m2
10:09 53 °F 48.7 °F 29.96 in NW 4.4 mph 9 mph 82.8% 0.00 in 315 W/m2
10:14 53.3 °F 48.8 °F 29.96 in WNW 5.6 mph 10 mph 82% 0.00 in 302 W/m2
10:19 53.8 °F 49.1 °F 29.96 in WNW 6.2 mph 12 mph 81.6% 0.00 in 302 W/m2
10:24 53.8 °F 48.5 °F 29.96 in West 9.6 mph 13 mph 79.8% 0.00 in 325 W/m2
10:29 53.9 °F 48.5 °F 29.96 in WNW 6.7 mph 15 mph 79% 0.00 in 336 W/m2
10:34 54 °F 48.6 °F 29.96 in NW 5.8 mph 15 mph 79% 0.00 in 357 W/m2
10:39 54.3 °F 48.7 °F 29.96 in WNW 6 mph 9 mph 78.8% 0.00 in 352 W/m2
10:44 54.7 °F 48.6 °F 29.96 in WNW 4.9 mph 14 mph 77.2% 0.00 in 396 W/m2
10:49 55 °F 48.8 °F 29.96 in WNW 5.8 mph 12 mph 76.8% 0.00 in 388 W/m2
10:54 55 °F 48.6 °F 29.96 in NW 6.2 mph 13 mph 76% 0.01 in 404 W/m2
10:59 55.1 °F 48.3 °F 29.96 in WNW 8.9 mph 15 mph 75% 0.01 in 420 W/m2
11:04 55.2 °F 48.6 °F 29.96 in WNW 7.4 mph 16 mph 75.4% 0.01 in 413 W/m2
11:09 55.2 °F 48.6 °F 29.96 in WNW 9 mph 17 mph 75.6% 0.01 in 431 W/m2
11:14 55.4 °F 48.6 °F 29.96 in WNW 9.2 mph 16 mph 75.2% 0.01 in 473 W/m2
11:19 55.8 °F 48.7 °F 29.97 in West 11.1 mph 18 mph 74.8% 0.01 in 461 W/m2
11:24 55.8 °F 48.5 °F 29.97 in WNW 8.8 mph 15 mph 74.2% 0.01 in 469 W/m2
11:29 55.8 °F 48.2 °F 29.97 in WNW 7.8 mph 17 mph 73.6% 0.01 in 512 W/m2
11:34 55.9 °F 48.1 °F 29.97 in WNW 7.8 mph 13 mph 73% 0.01 in 492 W/m2
11:39 56 °F 48.3 °F 29.97 in WNW 8.4 mph 15 mph 73% 0.01 in 573 W/m2
11:44 56.3 °F 48.4 °F 29.97 in WNW 7.4 mph 16 mph 72.4% 0.01 in 585 W/m2
11:49 56.7 °F 48.2 °F 29.97 in WNW 7.2 mph 14 mph 71% 0.01 in 599 W/m2
11:54 56.4 °F 47.8 °F 29.97 in WNW 6 mph 13 mph 70.6% 0.01 in 285 W/m2
11:59 56.3 °F 47.8 °F 29.97 in West 4.2 mph 13 mph 71% 0.00 in 267 W/m2
12:04 56 °F 47.6 °F 29.98 in West 6.7 mph 13 mph 71.2% 0.00 in 220 W/m2
12:08 55.8 °F 47.7 °F 29.98 in WNW 7.3 mph 10 mph 72% 0.00 in 190 W/m2
12:14 55.5 °F 47.3 °F 29.98 in WNW 7.2 mph 17 mph 71.6% 0.00 in 229 W/m2
12:19 55.4 °F 47.5 °F 29.98 in WNW 8.6 mph 14 mph 72% 0.00 in 301 W/m2
12:24 55.6 °F 47.5 °F 29.98 in WNW 5.2 mph 11 mph 72% 0.00 in 200 W/m2
12:29 55.8 °F 47.9 °F 29.98 in WNW 5.3 mph 14 mph 72.6% 0.00 in 206 W/m2
12:34 55.8 °F 47.8 °F 29.98 in WNW 5.7 mph 10 mph 72.4% 0.00 in 225 W/m2
12:39 55.8 °F 47.5 °F 29.98 in West 7.8 mph 13 mph 71.6% 0.00 in 311 W/m2
12:44 56.1 °F 47.7 °F 29.98 in WNW 4.1 mph 13 mph 71% 0.00 in 541 W/m2
12:49 56.6 °F 48 °F 29.98 in WNW 6.5 mph 12 mph 70.6% 0.00 in 330 W/m2
12:54 57 °F 48.6 °F 29.98 in West 6.8 mph 11 mph 71.2% 0.00 in 251 W/m2
12:59 56.8 °F 48.6 °F 29.98 in West 6 mph 12 mph 71.6% 0.00 in 230 W/m2
13:04 56.7 °F 48.6 °F 29.98 in NW 5.2 mph 11 mph 72% 0.00 in 181 W/m2
13:09 56.5 °F 48.6 °F 29.98 in WNW 7 mph 12 mph 72.8% 0.00 in 176 W/m2
13:14 56.6 °F 48.9 °F 29.98 in West 7.6 mph 11 mph 73% 0.00 in 731 W/m2
13:19 57.9 °F 49.9 °F 29.98 in West 6.8 mph 11 mph 72.4% 0.00 in 758 W/m2
13:24 58.6 °F 50 °F 29.98 in WSW 6.6 mph 12 mph 70.6% 0.00 in 670 W/m2
13:29 59 °F 50 °F 29.98 in West 7.4 mph 13 mph 69.8% 0.00 in 577 W/m2
13:34 59 °F 50 °F 29.98 in West 4.2 mph 11 mph 69.8% 0.00 in 589 W/m2
13:39 59.1 °F 49.9 °F 29.98 in West 8.7 mph 17 mph 69.4% 0.00 in 599 W/m2
13:44 58.4 °F 49.5 °F 29.98 in West 6 mph 12 mph 69.8% 0.00 in 499 W/m2
13:49 57.9 °F 49.5 °F 29.98 in WNW 6 mph 11 mph 71% 0.00 in 246 W/m2
13:54 58.2 °F 50.1 °F 29.98 in WNW 3.4 mph 9 mph 72% 0.00 in 234 W/m2
13:59 58.1 °F 50.1 °F 29.98 in WNW 4.9 mph 10 mph 72.2% 0.00 in 246 W/m2
14:04 57.8 °F 49.7 °F 29.98 in WNW 5.5 mph 9 mph 72% 0.00 in 246 W/m2
14:09 57.8 °F 49.5 °F 29.98 in West 8.4 mph 14 mph 71.4% 0.00 in 237 W/m2
14:14 57.8 °F 49.5 °F 29.98 in West 5 mph 11 mph 71.3% 0.00 in 251 W/m2
14:19 57.9 °F 49.4 °F 29.98 in WNW 6.8 mph 10 mph 70.8% 0.00 in 288 W/m2
14:24 58.1 °F 49.2 °F 29.98 in West 7 mph 15 mph 69.8% 0.00 in 338 W/m2
14:29 57.9 °F 48.7 °F 29.98 in WNW 9.3 mph 16 mph 69% 0.00 in 348 W/m2
14:34 58 °F 49.1 °F 29.98 in WNW 6.8 mph 16 mph 69.8% 0.00 in 517 W/m2
14:39 58.4 °F 49.5 °F 29.98 in West 9 mph 15 mph 70% 0.00 in 425 W/m2
14:44 58.6 °F 50.1 °F 29.98 in West 5.4 mph 15 mph 70.8% 0.00 in 452 W/m2
14:49 59.3 °F 50.3 °F 29.98 in West 8.2 mph 12 mph 70% 0.00 in 457 W/m2
14:54 58.9 °F 49.3 °F 29.98 in West 7.4 mph 14 mph 68.2% 0.00 in 279 W/m2
14:59 58.7 °F 48.7 °F 29.98 in WNW 7.5 mph 17 mph 67.2% 0.00 in 232 W/m2
15:04 58.6 °F 48.6 °F 29.98 in West 8.4 mph 17 mph 67% 0.00 in 367 W/m2
15:09 59.1 °F 49.4 °F 29.98 in West 9.2 mph 14 mph 68% 0.00 in 369 W/m2
15:14 59.4 °F 49.9 °F 29.98 in West 6.6 mph 13 mph 68.8% 0.00 in 304 W/m2
15:19 59.3 °F 50.8 °F 29.97 in WNW 5.2 mph 10 mph 71% 0.00 in 214 W/m2
15:24 59.2 °F 50.7 °F 29.97 in West 6.6 mph 12 mph 71% 0.00 in 186 W/m2
15:29 58.9 °F 50.5 °F 29.97 in West 5.7 mph 12 mph 71.2% 0.00 in 320 W/m2
15:34 59.2 °F 51.1 °F 29.97 in WNW 4.6 mph 12 mph 71.8% 0.00 in 476 W/m2
15:39 59 °F 50.6 °F 29.97 in WNW 8 mph 14 mph 71.2% 0.00 in 294 W/m2
15:44 59.1 °F 51.1 °F 29.97 in West 5.2 mph 13 mph 72.2% 0.00 in 287 W/m2
15:49 59 °F 51 °F 29.97 in WNW 8.4 mph 15 mph 72.2% 0.00 in 257 W/m2
15:54 59 °F 51.3 °F 29.97 in WNW 6.3 mph 11 mph 73% 0.00 in 250 W/m2
15:59 58.8 °F 50.8 °F 29.97 in WNW 6 mph 12 mph 72.2% 0.00 in 255 W/m2
16:04 58.9 °F 51.2 °F 29.97 in WSW 8.4 mph 11 mph 73% 0.00 in 394 W/m2
16:09 59.2 °F 51.3 °F 29.97 in West 7 mph 14 mph 72.6% 0.00 in 455 W/m2
16:14 59.2 °F 51.4 °F 29.97 in West 4.9 mph 11 mph 73% 0.00 in 185 W/m2
16:19 59.2 °F 51.5 °F 29.97 in West 4.8 mph 9 mph 73.2% 0.00 in 163 W/m2
16:24 59.1 °F 51.4 °F 29.97 in West 6.2 mph 10 mph 73.2% 0.00 in 183 W/m2
16:29 59.1 °F 51.7 °F 29.96 in West 4.2 mph 8 mph 74% 0.00 in 185 W/m2
16:34 58.9 °F 51.5 °F 29.96 in West 3.5 mph 8 mph 74% 0.00 in 181 W/m2
16:39 58.8 °F 51.4 °F 29.96 in West 5.1 mph 8 mph 74% 0.00 in 155 W/m2
16:44 58.6 °F 51.5 °F 29.96 in West 2.9 mph 8 mph 74.6% 0.00 in 121 W/m2
16:49 58.7 °F 51.7 °F 29.96 in West 4.8 mph 8 mph 75% 0.00 in 114 W/m2
16:54 58.6 °F 51.6 °F 29.96 in WSW 4.4 mph 9 mph 75% 0.00 in 105 W/m2
16:59 58.5 °F 51.4 °F 29.96 in SW 3.5 mph 8 mph 75% 0.00 in 95 W/m2
17:04 58.5 °F 51.4 °F 29.96 in WSW 3.2 mph 7 mph 75% 0.00 in 72 W/m2
17:08 58.5 °F 51.4 °F 29.96 in SW 4 mph 7 mph 75% 0.00 in 62 W/m2
17:14 58.3 °F 51.3 °F 29.96 in SW 5.6 mph 9 mph 75% 0.00 in 56 W/m2
17:19 58.1 °F 51.2 °F 29.95 in SW 3.8 mph 8 mph 75.4% 0.00 in 46 W/m2
17:24 57.9 °F 51.3 °F 29.95 in SW 4.5 mph 8 mph 76% 0.00 in 51 W/m2
17:29 57.9 °F 51.3 °F 29.95 in WSW 2 mph 7 mph 76% 0.00 in 47 W/m2
17:34 57.9 °F 51.3 °F 29.96 in WSW 1.9 mph 5 mph 76% 0.00 in 40 W/m2
17:39 57.9 °F 51.3 °F 29.96 in WSW 1.7 mph 5 mph 76% 0.00 in 33 W/m2
17:44 57.8 °F 51.2 °F 29.95 in SW 3.1 mph 6 mph 76% 0.00 in 32 W/m2
17:49 57.7 °F 51.2 °F 29.95 in SSW 2.5 mph 6 mph 76.2% 0.00 in 30 W/m2
17:54 57.7 °F 51.4 °F 29.96 in SSW 1.7 mph 4 mph 77% 0.00 in 25 W/m2
17:59 57.7 °F 51.4 °F 29.95 in SSW 1.7 mph 5 mph 77% 0.00 in 19 W/m2
18:04 57.7 °F 51.4 °F 29.95 in SSW 1.9 mph 4 mph 77% 0.00 in 14 W/m2
18:09 57.7 °F 51.4 °F 29.95 in SSW 2.4 mph 4 mph 77% 0.00 in 11 W/m2
18:13 57.7 °F 51.4 °F 29.95 in SSW 2 mph 4 mph 77% 0.00 in 5 W/m2
18:19 57.7 °F 51.4 °F 29.96 in SSW 0.8 mph 4 mph 77% 0.00 in 5 W/m2
18:24 57.6 °F 51.3 °F 29.95 in South 2.6 mph 6 mph 77% 0.00 in 0 W/m2
18:29 57.4 °F 51.3 °F 29.95 in SSW 3.2 mph 6 mph 77.6% 0.00 in 0 W/m2
18:34 57.1 °F 51.2 °F 29.96 in SSW 2.5 mph 6 mph 78% 0.00 in 0 W/m2
18:39 56.8 °F 51.3 °F 29.96 in SSW 3.3 mph 9 mph 78.8% 0.00 in 0 W/m2
18:44 56.7 °F 51.5 °F 29.96 in SW 2.9 mph 8 mph 80.4% 0.01 in 0 W/m2
18:49 56.4 °F 51.8 °F 29.96 in SSW 3.5 mph 8 mph 81.8% 0.01 in 0 W/m2
18:54 56 °F 51.9 °F 29.96 in SW 2.9 mph 6 mph 83% 0.01 in 0 W/m2
18:59 55.9 °F 51.9 °F 29.96 in SW 1.8 mph 5 mph 84% 0.01 in 0 W/m2
19:04 55.8 °F 52 °F 29.96 in SSW 2 mph 4 mph 84.6% 0.02 in 0 W/m2
19:09 55.8 °F 52.3 °F 29.96 in SSW 1 mph 3 mph 85.4% 0.02 in 0 W/m2
19:14 55.7 °F 52.4 °F 29.96 in SSW 1.6 mph 4 mph 86% 0.02 in 0 W/m2
19:19 55.6 °F 52.3 °F 29.96 in SSW 1.4 mph 4 mph 86% 0.02 in 0 W/m2
19:24 55.5 °F 52.4 °F 29.95 in SSW 0.8 mph 4 mph 86.6% 0.02 in 0 W/m2
19:29 55.2 °F 52.3 °F 29.95 in SSW 2.1 mph 4 mph 87% 0.02 in 0 W/m2
19:34 55.2 °F 52.3 °F 29.95 in SSW 2 mph 5 mph 87% 0.02 in 0 W/m2
19:39 55 °F 52.3 °F 29.95 in SSW 2.4 mph 5 mph 87.4% 0.02 in 0 W/m2
19:42 55 °F 52.5 °F 29.94 in SSW 2 mph 4 mph 88% 0.02 in 0 W/m2
19:49 55 °F 52.4 °F 29.94 in SSW 1 mph 4 mph 88% 0.01 in 0 W/m2
19:54 54.9 °F 52.3 °F 29.94 in SSW 2.5 mph 5 mph 88% 0.01 in 0 W/m2
19:59 54.8 °F 52.3 °F 29.94 in SW 2.9 mph 5 mph 88% 0.01 in 0 W/m2
20:04 54.7 °F 52.2 °F 29.94 in SW 1.1 mph 4 mph 88.2% 0.01 in 0 W/m2
20:09 54.7 °F 52.3 °F 29.94 in SW 1.6 mph 4 mph 89% 0.00 in 0 W/m2
20:14 54.7 °F 52.3 °F 29.94 in SW 1.8 mph 5 mph 88.8% 0.00 in 0 W/m2
20:19 54.7 °F 52.3 °F 29.94 in SW 2.5 mph 5 mph 89% 0.00 in 0 W/m2
20:24 54.6 °F 52.2 °F 29.93 in SW 2.4 mph 8 mph 89% 0.00 in 0 W/m2
20:29 54.5 °F 52.2 °F 29.93 in SW 0.8 mph 6 mph 89% 0.00 in 0 W/m2
20:34 54.5 °F 52.2 °F 29.93 in SSW 1.8 mph 5 mph 89% 0.00 in 0 W/m2
20:39 54.3 °F 52 °F 29.93 in SSW 2.7 mph 5 mph 89% 0.00 in 0 W/m2
20:44 54.3 °F 52 °F 29.93 in SSW 4.8 mph 8 mph 89% 0.00 in 0 W/m2
20:49 54.3 °F 52.1 °F 29.93 in SSW 3.1 mph 8 mph 89.2% 0.00 in 0 W/m2
20:54 54.3 °F 52.3 °F 29.93 in WSW 1.3 mph 7 mph 90% 0.00 in 0 W/m2
20:59 54.3 °F 52.3 °F 29.93 in South 1.1 mph 6 mph 90% 0.00 in 0 W/m2
21:04 54.3 °F 52.3 °F 29.92 in SW 2.8 mph 5 mph 90% 0.00 in 0 W/m2
21:09 54.3 °F 52.3 °F 29.92 in SSW 1.7 mph 5 mph 90% 0.00 in 0 W/m2
21:14 54.3 °F 52.3 °F 29.92 in South 2.8 mph 7 mph 90% 0.00 in 0 W/m2
21:19 54.1 °F 52.2 °F 29.92 in South 3.2 mph 7 mph 90% 0.00 in 0 W/m2
21:24 54.1 °F 52.2 °F 29.91 in South 3.7 mph 6 mph 90% 0.00 in 0 W/m2
21:29 54 °F 52.1 °F 29.91 in SSW 2.8 mph 7 mph 90% 0.00 in 0 W/m2
21:34 54 °F 52 °F 29.91 in SSW 2 mph 5 mph 90% 0.00 in 0 W/m2
21:39 54 °F 52 °F 29.90 in SSW 2.7 mph 5 mph 90% 0.00 in 0 W/m2
21:44 54 °F 52 °F 29.90 in SSE 2.2 mph 5 mph 90% 0.00 in 0 W/m2
21:49 54 °F 52 °F 29.90 in SE 2.1 mph 4 mph 90% 0.00 in 0 W/m2
21:54 54 °F 52.2 °F 29.90 in SSE 3 mph 7 mph 90.6% 0.00 in 0 W/m2
21:59 54 °F 52.3 °F 29.89 in SE 2.5 mph 6 mph 91% 0.00 in 0 W/m2
22:04 54 °F 52.3 °F 29.89 in SSE 2.3 mph 7 mph 91% 0.01 in 0 W/m2
22:09 54 °F 52.3 °F 29.89 in ESE 3 mph 8 mph 91% 0.01 in 0 W/m2
22:14 54 °F 52.3 °F 29.89 in SE 2.5 mph 7 mph 91% 0.01 in 0 W/m2
22:19 54 °F 52.3 °F 29.88 in SSE 1.8 mph 7 mph 91% 0.01 in 0 W/m2
22:24 54.1 °F 52.4 °F 29.88 in South 2.4 mph 8 mph 91% 0.01 in 0 W/m2
22:29 54.1 °F 52.5 °F 29.88 in South 0.4 mph 4 mph 91% 0.01 in 0 W/m2
22:34 54.1 °F 52.5 °F 29.88 in SSW 0.6 mph 3 mph 91% 0.01 in 0 W/m2
22:39 54.3 °F 52.9 °F 29.88 in South 4 mph 7 mph 92% 0.01 in 0 W/m2
22:44 54.3 °F 52.7 °F 29.88 in SSW 1.2 mph 7 mph 91.2% 0.01 in 0 W/m2
22:49 54.5 °F 53.1 °F 29.87 in SSW 2.2 mph 7 mph 92% 0.01 in 0 W/m2
22:54 54.7 °F 53.2 °F 29.87 in SSW 2.7 mph 10 mph 92% 0.01 in 0 W/m2
22:59 54.9 °F 53.4 °F 29.87 in SSW 2.8 mph 10 mph 92% 0.01 in 0 W/m2
23:04 55 °F 53.6 °F 29.86 in South 4 mph 7 mph 92% 0.01 in 0 W/m2
23:09 55.1 °F 53.7 °F 29.86 in SSW 5.1 mph 10 mph 92% 0.00 in 0 W/m2
23:14 55.3 °F 53.9 °F 29.86 in SSW 2 mph 8 mph 92% 0.00 in 0 W/m2
23:19 55.6 °F 54.1 °F 29.86 in SSW 5.2 mph 10 mph 92% 0.00 in 0 W/m2
23:24 55.8 °F 54.3 °F 29.85 in SW 2.9 mph 8 mph 92% 0.00 in 0 W/m2
23:29 55.9 °F 54.5 °F 29.85 in SSW 2.4 mph 8 mph 92% 0.00 in 0 W/m2
23:34 56.1 °F 54.7 °F 29.85 in SW 5.6 mph 10 mph 92% 0.00 in 0 W/m2
23:39 56.5 °F 55 °F 29.84 in SW 4.6 mph 9 mph 92% 0.00 in 0 W/m2
23:44 56.6 °F 55.1 °F 29.84 in SSW 2.4 mph 10 mph 92% 0.01 in 0 W/m2
23:49 56.7 °F 55.2 °F 29.84 in SSW 2.7 mph 7 mph 92% 0.01 in 0 W/m2
23:54 56.7 °F 55.3 °F 29.83 in SW 3.2 mph 9 mph 92% 0.01 in 0 W/m2
23:59 56.8 °F 55.4 °F 29.83 in SW 2.1 mph 9 mph 92% 0.01 in 0 W/m2
Bath Spa Weather
Compliments of Weather Underground - 2 mb